MSC Paola — 9HA2581 — position and weather

sailwx.info

Track history (hours):
 
Tides and Currents Weather Stations Pressure Air Temp Water Temp Dewpoint Dewpoint Depression Visibility Wind Speed Wind Dir Waves Ship Positions

MSC Paola

Last reported at 2016-Aug-29 01:33 UTC. Time now 2016-Aug-29 12:57 UTC.
Position N 17°40' W 060°31'.

Length 243 m; draft 8.9 m.

Type: Ship (hazmat cat A). MMSI: 248931000.

Date/timePositionNaut miles runAvg speedWind from/ knotsBaromVisibWave heightAir tempDewpointWater temp
2016-Aug-29 01:33N 17°40' W 060°31'1817.8
2016-Aug-29 00:33N 17°51' W 060°46'1817.8
2016-Aug-28 23:33N 18°02' W 061°01'1818.1
2016-Aug-28 22:32N 18°12' W 061°17'1818.2
2016-Aug-28 21:33N 18°23' W 061°32'  
2016-Aug-25 12:19N 26°53' W 079°15'  
2016-Aug-22 16:30N 35°29' W 075°10'8315.9
2016-Aug-22 11:17N 36°49' W 075°38'1115.4
2016-Aug-22 10:33N 36°51' W 075°51'1716.7
2016-Aug-22 09:33N 36°59' W 076°10'1010.0
2016-Aug-22 08:33N 36°53' W 076°20'1 1.0
2016-Aug-22 07:30N 36°53' W 076°21'0 0.0
2016-Aug-22 06:05N 36°53' W 076°21'0 0.0
2016-Aug-22 05:33N 36°53' W 076°21'0 0.0
2016-Aug-22 03:29N 36°53' W 076°21'0 0.0
2016-Aug-22 02:28N 36°53' W 076°21'0 0.0
2016-Aug-22 01:32N 36°53' W 076°21'0 0.0
2016-Aug-22 00:32N 36°53' W 076°21'0 0.0
2016-Aug-21 23:17N 36°53' W 076°21'0 0.0
2016-Aug-21 22:32N 36°53' W 076°21'0 0.0
2016-Aug-21 21:33N 36°53' W 076°21'3 3.4
2016-Aug-21 20:34N 36°56' W 076°20'11 9.4
2016-Aug-21 19:25N 36°59' W 076°07'1112.4
2016-Aug-21 18:33N 36°55' W 075°55'9 1.1
2016-Aug-21 10:32N 36°52' W 075°45'0 0.0
2016-Aug-21 09:07N 36°52' W 075°45'0 0.0
2016-Aug-21 08:29N 36°52' W 075°45'0 0.0
2016-Aug-21 07:32N 36°52' W 075°45'4 0.3
2016-Aug-20 19:33N 36°50' W 075°49'1414.5
2016-Aug-20 18:33N 37°00' W 076°02'1514.0
2016-Aug-20 17:29N 37°14' W 076°08'4013.5
2016-Aug-20 14:33N 37°54' W 076°09'1615.8
2016-Aug-20 13:33N 38°10' W 076°14'1815.1
2016-Aug-20 12:20N 38°27' W 076°22'1214.9
2016-Aug-20 11:33N 38°38' W 076°25'1514.9
2016-Aug-20 10:33N 38°53' W 076°24'1413.6
2016-Aug-20 09:32N 39°07' W 076°24'1010.3
2016-Aug-20 08:33N 39°14' W 076°33'1 1.2
2016-Aug-20 07:30N 39°15' W 076°33'0 0.0
2016-Aug-20 06:30N 39°15' W 076°33'0 0.0
2016-Aug-20 05:32N 39°15' W 076°33'0 0.0
2016-Aug-20 04:33N 39°15' W 076°33'0 0.0
2016-Aug-20 03:32N 39°15' W 076°33'0 0.0
2016-Aug-20 02:33N 39°15' W 076°33'0 0.0
2016-Aug-20 01:33N 39°15' W 076°33'0 0.0
2016-Aug-20 00:29N 39°15' W 076°33'0 0.0
2016-Aug-19 23:31N 39°15' W 076°33'1 1.5
2016-Aug-19 22:33N 39°14' W 076°33'9 9.4
2016-Aug-19 21:33N 39°08' W 076°24'1515.1
2016-Aug-19 20:33N 38°52' W 076°24'2215.1
2016-Aug-19 19:07N 38°31' W 076°25'2313.7
2016-Aug-19 17:26N 38°09' W 076°14'5815.0
2016-Aug-19 13:31N 37°11' W 076°09'1616.3
2016-Aug-19 12:33N 36°57' W 075°59'1413.8
2016-Aug-19 11:33N 36°49' W 075°45'  
Track history (hours):
 
Tides and Currents Weather Stations Pressure Air Temp Water Temp Dewpoint Dewpoint Depression Visibility Wind Speed Wind Dir Waves Ship Positions

MSC Paola

Last reported at 2016-Aug-29 01:33 UTC. Time now 2016-Aug-29 12:57 UTC.
Position N 17°40' W 060°31'.

Length 243 m; draft 8.9 m.

Type: Ship (hazmat cat A). MMSI: 248931000.

Date/timePositionNaut miles runAvg speedWind from/ knotsBaromVisibWave heightAir tempDewpointWater temp
2016-Aug-29 01:33N 17°40' W 060°31'1817.8
2016-Aug-29 00:33N 17°51' W 060°46'1817.8
2016-Aug-28 23:33N 18°02' W 061°01'1818.1
2016-Aug-28 22:32N 18°12' W 061°17'1818.2
2016-Aug-28 21:33N 18°23' W 061°32'  
2016-Aug-25 12:19N 26°53' W 079°15'  
2016-Aug-22 16:30N 35°29' W 075°10'8315.9
2016-Aug-22 11:17N 36°49' W 075°38'1115.4
2016-Aug-22 10:33N 36°51' W 075°51'1716.7
2016-Aug-22 09:33N 36°59' W 076°10'1010.0
2016-Aug-22 08:33N 36°53' W 076°20'1 1.0
2016-Aug-22 07:30N 36°53' W 076°21'0 0.0
2016-Aug-22 06:05N 36°53' W 076°21'0 0.0
2016-Aug-22 05:33N 36°53' W 076°21'0 0.0
2016-Aug-22 03:29N 36°53' W 076°21'0 0.0
2016-Aug-22 02:28N 36°53' W 076°21'0 0.0
2016-Aug-22 01:32N 36°53' W 076°21'0 0.0
2016-Aug-22 00:32N 36°53' W 076°21'0 0.0
2016-Aug-21 23:17N 36°53' W 076°21'0 0.0
2016-Aug-21 22:32N 36°53' W 076°21'0 0.0
2016-Aug-21 21:33N 36°53' W 076°21'3 3.4
2016-Aug-21 20:34N 36°56' W 076°20'11 9.4
2016-Aug-21 19:25N 36°59' W 076°07'1112.4
2016-Aug-21 18:33N 36°55' W 075°55'9 1.1
2016-Aug-21 10:32N 36°52' W 075°45'0 0.0
2016-Aug-21 09:07N 36°52' W 075°45'0 0.0
2016-Aug-21 08:29N 36°52' W 075°45'0 0.0
2016-Aug-21 07:32N 36°52' W 075°45'4 0.3
2016-Aug-20 19:33N 36°50' W 075°49'1414.5
2016-Aug-20 18:33N 37°00' W 076°02'1514.0
2016-Aug-20 17:29N 37°14' W 076°08'4013.5
2016-Aug-20 14:33N 37°54' W 076°09'1615.8
2016-Aug-20 13:33N 38°10' W 076°14'1815.1
2016-Aug-20 12:20N 38°27' W 076°22'1214.9
2016-Aug-20 11:33N 38°38' W 076°25'1514.9
2016-Aug-20 10:33N 38°53' W 076°24'1413.6
2016-Aug-20 09:32N 39°07' W 076°24'1010.3
2016-Aug-20 08:33N 39°14' W 076°33'1 1.2
2016-Aug-20 07:30N 39°15' W 076°33'0 0.0
2016-Aug-20 06:30N 39°15' W 076°33'0 0.0
2016-Aug-20 05:32N 39°15' W 076°33'0 0.0
2016-Aug-20 04:33N 39°15' W 076°33'0 0.0
2016-Aug-20 03:32N 39°15' W 076°33'0 0.0
2016-Aug-20 02:33N 39°15' W 076°33'0 0.0
2016-Aug-20 01:33N 39°15' W 076°33'0 0.0
2016-Aug-20 00:29N 39°15' W 076°33'0 0.0
2016-Aug-19 23:31N 39°15' W 076°33'1 1.5
2016-Aug-19 22:33N 39°14' W 076°33'9 9.4
2016-Aug-19 21:33N 39°08' W 076°24'1515.1
2016-Aug-19 20:33N 38°52' W 076°24'2215.1
2016-Aug-19 19:07N 38°31' W 076°25'2313.7
2016-Aug-19 17:26N 38°09' W 076°14'5815.0
2016-Aug-19 13:31N 37°11' W 076°09'1616.3
2016-Aug-19 12:33N 36°57' W 075°59'1413.8
2016-Aug-19 11:33N 36°49' W 075°45'  

Dump ship's entire track history